KMRN/MRN METAR and TAF weather

Enter ICAO airport designator
Station Type Date Time Source
KMRN METAR 2022/01/25 04:35 UTC NOAA

KMRN 250435Z AUTO 00000KT 10SM CLR 00/M02 A2989 RMK AO2 T00001021


Station Type Date Time Source
KMRN Decoded METAR 2022/01/25 04:35 UTC NOAA

Morganton, Morganton-Lenoir Airport, NC, United States (KMRN) 35-49-17N 081-36-39W
Jan 24, 2022 - 11:35 PM EST / 2022.01.25 0435 UTC
Wind: Calm:0
Visibility: 10 mile(s):0
Sky conditions: clear
Temperature: 32.0 F (0.0 C)
Dew Point: 28.2 F (-2.1 C)
Relative Humidity: 85%
Pressure (altimeter): 29.89 in. Hg (1012 hPa)
ob: KMRN 250435Z AUTO 00000KT 10SM CLR 00/M02 A2989 RMK AO2 T00001021
cycle: 4

Station Type Date Time Source
KMRN TAF UTC NOAA

Error!

Example: see airport list